createdAt,value
2022-09-20T00:01:16.822Z,6.20
2022-09-20T00:03:45.597Z,6.10
2022-09-20T00:06:18.597Z,6.00
2022-09-20T00:08:46.214Z,5.90
2022-09-20T00:11:18.404Z,5.90
2022-09-20T00:13:47.006Z,5.70
2022-09-20T00:16:25.849Z,5.60
2022-09-20T00:18:54.420Z,5.50
2022-09-20T00:21:23.851Z,5.40
2022-09-20T00:23:52.335Z,5.50
2022-09-20T00:26:19.369Z,5.50
2022-09-20T00:28:46.982Z,5.50
2022-09-20T00:31:14.834Z,5.60
2022-09-20T00:34:00.366Z,5.60
2022-09-20T00:36:30.109Z,5.50
2022-09-20T00:39:01.070Z,5.40
2022-09-20T00:41:29.533Z,5.30
2022-09-20T00:43:57.099Z,5.20
2022-09-20T00:46:29.657Z,5.10
2022-09-20T00:48:59.620Z,5.20
2022-09-20T00:51:31.878Z,5.20
2022-09-20T00:54:02.844Z,5.20
2022-09-20T00:56:33.912Z,5.20
2022-09-20T00:59:04.774Z,5.20
2022-09-20T01:01:32.385Z,5.20
2022-09-20T01:04:00.709Z,5.20
2022-09-20T01:06:28.296Z,5.20
2022-09-20T01:08:57.982Z,5.10
2022-09-20T01:11:26.144Z,5.00
2022-09-20T01:13:52.982Z,4.90
2022-09-20T01:16:20.905Z,4.90
2022-09-20T01:18:49.375Z,4.90
2022-09-20T01:21:17.620Z,4.90
2022-09-20T01:23:56.453Z,4.90
2022-09-20T01:26:37.423Z,4.80
2022-09-20T01:29:30.098Z,4.80
2022-09-20T01:32:00.936Z,4.60
2022-09-20T01:34:41.397Z,4.70
2022-09-20T01:37:45.125Z,4.70
2022-09-20T01:40:33.291Z,4.70
2022-09-20T01:43:14.522Z,4.70
2022-09-20T01:45:49.430Z,4.70
2022-09-20T01:48:33.429Z,4.70
2022-09-20T01:51:30.830Z,4.70
2022-09-20T01:54:22.517Z,4.60
2022-09-20T01:57:01.289Z,4.50
2022-09-20T01:59:48.962Z,4.50
2022-09-20T02:02:39.911Z,4.50
2022-09-20T02:05:25.074Z,4.40
2022-09-20T02:08:20.922Z,4.30
2022-09-20T02:10:54.248Z,4.20
2022-09-20T02:13:39.624Z,4.20
2022-09-20T02:16:39.210Z,4.20
2022-09-20T02:19:21.047Z,4.10
2022-09-20T02:22:02.605Z,4.20
2022-09-20T02:25:04.799Z,4.20
2022-09-20T02:27:50.131Z,4.10
2022-09-20T02:30:41.277Z,4.20
2022-09-20T02:33:35.815Z,4.20
2022-09-20T02:36:24.116Z,4.20
2022-09-20T02:39:07.025Z,4.10
2022-09-20T02:41:54.453Z,4.00
2022-09-20T02:44:45.892Z,4.10
2022-09-20T02:47:21.196Z,4.00
2022-09-20T02:49:58.835Z,4.00
2022-09-20T02:53:02.975Z,4.00
2022-09-20T02:55:47.066Z,4.00
2022-09-20T02:58:44.704Z,4.00
2022-09-20T03:01:35.339Z,3.90
2022-09-20T03:04:20.600Z,4.00
2022-09-20T03:07:13.752Z,3.90
2022-09-20T03:10:07.753Z,3.90
2022-09-20T03:12:57.363Z,3.80
2022-09-20T03:15:47.213Z,3.70
2022-09-20T03:18:39.381Z,3.60
2022-09-20T03:21:22.673Z,3.60
2022-09-20T03:23:55.531Z,3.50
2022-09-20T03:26:52.878Z,3.60
2022-09-20T03:29:29.348Z,3.60
2022-09-20T03:32:04.636Z,3.70
2022-09-20T03:34:45.368Z,3.70
2022-09-20T03:37:18.579Z,3.70
2022-09-20T03:40:12.917Z,3.80
2022-09-20T03:42:48.718Z,3.70
2022-09-20T03:45:36.981Z,3.80
2022-09-20T03:48:25.564Z,3.80
2022-09-20T03:51:09.345Z,3.90
2022-09-20T03:54:15.298Z,3.90
2022-09-20T03:57:06.526Z,4.10
2022-09-20T04:00:05.144Z,4.10
2022-09-20T04:02:54.613Z,4.20
2022-09-20T04:05:57.218Z,4.10
2022-09-20T04:08:42.729Z,4.20
2022-09-20T04:11:31.244Z,4.10
2022-09-20T04:14:19.491Z,4.10
2022-09-20T04:17:25.015Z,3.90
2022-09-20T04:20:06.945Z,3.90
2022-09-20T04:22:34.198Z,3.90
2022-09-20T04:25:25.064Z,3.90
2022-09-20T04:28:04.965Z,3.90
2022-09-20T04:30:43.910Z,3.90
2022-09-20T04:33:28.921Z,3.90
2022-09-20T04:36:30.950Z,3.80
2022-09-20T04:39:27.219Z,3.80
2022-09-20T04:42:15.894Z,3.80
2022-09-20T04:45:20.853Z,3.90
2022-09-20T04:48:06.797Z,4.00
2022-09-20T04:50:48.612Z,4.00
2022-09-20T04:53:52.812Z,4.00
2022-09-20T04:56:26.057Z,3.90
2022-09-20T04:59:10.350Z,3.80
2022-09-20T05:01:55.524Z,3.80
2022-09-20T05:05:00.213Z,3.80
2022-09-20T05:07:26.833Z,3.80
2022-09-20T05:10:39.907Z,3.80
2022-09-20T05:13:47.982Z,3.80
2022-09-20T05:16:52.528Z,3.80
2022-09-20T05:19:43.641Z,3.70
2022-09-20T05:22:31.597Z,3.80
2022-09-20T05:25:25.908Z,3.90
2022-09-20T05:28:21.813Z,3.90
2022-09-20T05:31:10.216Z,3.80
2022-09-20T05:33:57.139Z,3.90
2022-09-20T05:36:39.261Z,3.90
2022-09-20T05:39:47.281Z,3.80
2022-09-20T05:42:28.963Z,3.80
2022-09-20T05:45:14.109Z,3.80
2022-09-20T05:48:04.526Z,3.90
2022-09-20T05:51:03.122Z,3.90
2022-09-20T05:54:01.446Z,4.00
2022-09-20T05:56:54.726Z,3.90
2022-09-20T05:59:36.801Z,4.00
2022-09-20T06:02:09.460Z,4.10
2022-09-20T06:04:58.929Z,4.10
2022-09-20T06:07:46.120Z,4.20
2022-09-20T06:10:31.421Z,4.20
2022-09-20T06:13:19.184Z,4.40
2022-09-20T06:15:56.115Z,4.50
2022-09-20T06:18:31.734Z,4.70
2022-09-20T06:21:09.059Z,4.70
2022-09-20T06:23:36.747Z,4.80
2022-09-20T06:26:10.229Z,4.80
2022-09-20T06:28:42.887Z,4.90
2022-09-20T06:31:11.352Z,5.00
2022-09-20T06:33:55.356Z,5.00
2022-09-20T06:36:48.881Z,5.20
2022-09-20T06:39:55.541Z,5.50
2022-09-20T06:42:25.347Z,5.80
2022-09-20T06:44:54.230Z,6.10
2022-09-20T06:47:23.105Z,6.40
2022-09-20T06:49:50.456Z,6.60
2022-09-20T06:52:20.485Z,6.80
2022-09-20T06:54:51.173Z,6.90
2022-09-20T06:57:35.185Z,7.10
2022-09-20T07:00:02.506Z,7.20
2022-09-20T07:02:29.258Z,7.30
2022-09-20T07:04:59.142Z,7.40
2022-09-20T07:07:26.104Z,7.40
2022-09-20T07:09:52.993Z,7.40
2022-09-20T07:12:19.687Z,7.40
2022-09-20T07:14:46.389Z,7.60
2022-09-20T07:17:14.663Z,7.70
2022-09-20T07:19:41.406Z,7.90
2022-09-20T07:22:08.101Z,8.10
2022-09-20T07:24:34.786Z,8.40
2022-09-20T07:27:03.175Z,8.60
2022-09-20T07:29:30.078Z,8.70
2022-09-20T07:31:57.213Z,8.40
2022-09-20T07:34:24.221Z,8.30
2022-09-20T07:36:51.291Z,8.50
2022-09-20T07:39:18.445Z,8.50
2022-09-20T07:41:50.602Z,8.50
2022-09-20T07:44:21.515Z,8.50
2022-09-20T07:46:53.123Z,8.60
2022-09-20T07:49:21.240Z,8.70
2022-09-20T07:51:49.167Z,8.90
2022-09-20T07:54:16.198Z,9.00
2022-09-20T07:56:42.987Z,9.00
2022-09-20T07:59:10.241Z,9.00
2022-09-20T08:01:37.854Z,9.10
2022-09-20T08:04:05.881Z,9.20
2022-09-20T08:06:35.733Z,9.30
2022-09-20T08:09:02.406Z,9.50
2022-09-20T08:11:30.666Z,9.60
2022-09-20T08:14:08.006Z,9.60
2022-09-20T08:16:47.332Z,9.20
2022-09-20T08:19:23.127Z,9.20
2022-09-20T08:21:52.543Z,9.00
2022-09-20T08:24:19.192Z,9.00
2022-09-20T08:26:45.970Z,9.10
2022-09-20T08:29:14.927Z,9.10
2022-09-20T08:31:42.645Z,9.10
2022-09-20T08:34:12.148Z,9.00
2022-09-20T08:36:41.507Z,9.10
2022-09-20T08:42:08.781Z,9.50
2022-09-20T08:44:46.931Z,9.70
2022-09-20T08:47:20.765Z,9.80
2022-09-20T08:49:48.071Z,9.80
2022-09-20T08:52:37.076Z,9.70
2022-09-20T08:55:19.840Z,9.80
2022-09-20T08:57:55.090Z,9.70
2022-09-20T09:00:30.573Z,9.60
2022-09-20T09:03:00.657Z,9.70
2022-09-20T09:05:35.950Z,9.50
2022-09-20T09:08:07.817Z,9.40
2022-09-20T09:10:45.112Z,9.50
2022-09-20T09:13:21.480Z,9.70
2022-09-20T09:15:54.315Z,9.70
2022-09-20T09:18:21.093Z,9.70
2022-09-20T09:20:48.284Z,9.80
2022-09-20T09:23:25.363Z,9.90
2022-09-20T09:25:54.596Z,10.10
2022-09-20T09:28:26.686Z,10.10
2022-09-20T09:31:05.069Z,10.00
2022-09-20T09:33:34.419Z,9.90
2022-09-20T09:36:04.040Z,9.80
2022-09-20T09:38:39.138Z,9.80
2022-09-20T09:41:26.294Z,9.60
2022-09-20T09:44:06.456Z,9.60
2022-09-20T09:46:34.813Z,9.40
2022-09-20T09:49:22.146Z,9.50
2022-09-20T09:52:14.755Z,9.30
2022-09-20T09:54:53.789Z,9.20
2022-09-20T09:57:48.639Z,9.20
2022-09-20T10:00:22.211Z,9.30
2022-09-20T10:03:17.759Z,9.40
2022-09-20T10:06:07.054Z,9.60
2022-09-20T10:09:11.990Z,9.70
2022-09-20T10:11:44.746Z,9.70
2022-09-20T10:14:33.004Z,9.70
2022-09-20T10:17:37.261Z,9.80
2022-09-20T10:20:37.566Z,10.00
2022-09-20T10:26:13.307Z,10.00
2022-09-20T10:29:01.128Z,10.00
2022-09-20T10:31:58.793Z,9.80
2022-09-20T10:34:40.194Z,9.90
2022-09-20T10:37:34.146Z,10.10
2022-09-20T10:40:16.331Z,10.20
2022-09-20T10:43:08.885Z,10.10
2022-09-20T10:46:21.075Z,10.10
2022-09-20T10:48:53.159Z,10.20
2022-09-20T10:51:27.293Z,10.40
2022-09-20T10:54:16.009Z,10.50
2022-09-20T10:56:58.277Z,10.40
2022-09-20T11:00:01.856Z,10.20
2022-09-20T11:03:02.894Z,10.30
2022-09-20T11:05:40.565Z,10.40
2022-09-20T11:08:25.533Z,10.40
2022-09-20T11:10:54.277Z,10.50
2022-09-20T11:13:22.340Z,10.50
2022-09-20T11:16:03.679Z,10.60
2022-09-20T11:18:39.065Z,10.50
2022-09-20T11:21:16.505Z,10.40
2022-09-20T11:24:11.561Z,10.30
2022-09-20T11:26:44.018Z,10.50
2022-09-20T11:29:16.986Z,10.60
2022-09-20T11:31:48.275Z,10.70
2022-09-20T11:34:31.920Z,10.90
2022-09-20T11:37:03.059Z,11.10
2022-09-20T11:39:50.591Z,11.30
2022-09-20T11:42:23.665Z,11.50
2022-09-20T11:44:51.174Z,11.60
2022-09-20T11:47:50.070Z,11.60
2022-09-20T11:50:33.041Z,11.50
2022-09-20T11:53:18.273Z,11.30
2022-09-20T11:55:48.589Z,11.40
2022-09-20T11:58:16.797Z,11.60
2022-09-20T12:00:46.536Z,11.60
2022-09-20T12:03:22.282Z,11.60
2022-09-20T12:06:00.946Z,11.50
2022-09-20T12:08:31.586Z,11.20
2022-09-20T12:11:14.550Z,10.90
2022-09-20T12:13:52.114Z,10.50
2022-09-20T12:16:38.524Z,10.40
2022-09-20T12:19:26.878Z,10.60
2022-09-20T12:21:59.721Z,10.70
2022-09-20T12:24:43.185Z,10.60
2022-09-20T12:27:27.563Z,10.70
2022-09-20T12:30:16.057Z,10.70
2022-09-20T12:32:44.661Z,10.70
2022-09-20T12:35:36.303Z,10.90
2022-09-20T12:38:31.179Z,11.20
2022-09-20T12:40:58.950Z,11.30
2022-09-20T12:43:29.200Z,11.30
2022-09-20T12:46:01.283Z,11.20
2022-09-20T12:48:36.019Z,11.10
2022-09-20T12:51:46.070Z,11.10
2022-09-20T12:54:14.681Z,10.90
2022-09-20T12:56:42.068Z,10.80
2022-09-20T12:59:31.052Z,10.80
2022-09-20T13:02:36.604Z,10.70
2022-09-20T13:05:03.507Z,11.00
2022-09-20T13:07:43.607Z,11.00
2022-09-20T13:10:35.762Z,11.00
2022-09-20T13:13:12.318Z,11.30
2022-09-20T13:15:40.522Z,11.60
2022-09-20T13:18:12.321Z,11.60
2022-09-20T13:20:41.583Z,11.40
2022-09-20T13:23:20.357Z,11.30
2022-09-20T13:25:48.304Z,11.10
2022-09-20T13:28:40.779Z,11.30
2022-09-20T13:31:37.202Z,11.40
2022-09-20T13:34:19.055Z,11.50
2022-09-20T13:36:50.996Z,11.60
2022-09-20T13:39:27.124Z,11.80
2022-09-20T13:41:53.993Z,12.60
2022-09-20T13:44:20.779Z,12.90
2022-09-20T13:46:47.498Z,13.00
2022-09-20T13:49:23.868Z,12.50
2022-09-20T13:51:51.961Z,12.20
2022-09-20T13:54:35.483Z,12.50
2022-09-20T13:57:33.726Z,13.00
2022-09-20T14:00:03.994Z,13.10
2022-09-20T14:02:54.851Z,13.20
2022-09-20T14:05:26.311Z,12.90
2022-09-20T14:08:02.240Z,12.80
2022-09-20T14:11:03.422Z,13.20
2022-09-20T14:13:37.109Z,13.50
2022-09-20T14:16:07.186Z,13.70
2022-09-20T14:18:37.060Z,14.00
2022-09-20T14:21:12.895Z,13.60
2022-09-20T14:23:54.467Z,13.20
2022-09-20T14:26:28.750Z,12.80
2022-09-20T14:28:56.346Z,12.80
2022-09-20T14:31:37.284Z,12.90
2022-09-20T14:34:05.482Z,13.10
2022-09-20T14:37:18.529Z,13.70
2022-09-20T14:39:55.181Z,14.00
2022-09-20T14:49:49.988Z,16.10
2022-09-20T14:52:36.025Z,17.00
2022-09-20T14:55:22.901Z,16.40
2022-09-20T14:57:53.439Z,15.80
2022-09-20T15:00:20.681Z,17.20
2022-09-20T15:02:47.716Z,18.30
2022-09-20T15:05:33.824Z,18.40
2022-09-20T15:08:00.890Z,16.60
2022-09-20T15:10:27.808Z,15.20
2022-09-20T15:12:54.521Z,15.50
2022-09-20T15:15:21.501Z,16.40
2022-09-20T15:17:48.756Z,18.00
2022-09-20T15:20:24.304Z,18.30
2022-09-20T15:22:51.435Z,18.30
2022-09-20T15:25:21.250Z,18.50
2022-09-20T15:27:52.331Z,18.60
2022-09-20T15:30:20.206Z,18.50
2022-09-20T15:32:47.440Z,18.40
2022-09-20T15:35:14.634Z,16.40
2022-09-20T15:37:41.529Z,14.50
2022-09-20T15:40:09.302Z,14.70
2022-09-20T15:42:37.916Z,15.00
2022-09-20T15:45:09.804Z,14.90
2022-09-20T15:47:38.393Z,14.40
2022-09-20T15:50:08.438Z,14.80
2022-09-20T15:52:37.357Z,14.40
2022-09-20T15:55:04.406Z,14.00
2022-09-20T15:57:32.052Z,14.90
2022-09-20T15:59:59.404Z,15.10
2022-09-20T16:02:26.789Z,15.20
2022-09-20T16:04:57.635Z,15.40
2022-09-20T16:07:27.404Z,15.10
2022-09-20T16:09:55.693Z,16.00
2022-09-20T16:12:24.522Z,16.40
2022-09-20T16:14:51.361Z,16.60
2022-09-20T16:17:18.232Z,16.70
2022-09-20T16:19:48.644Z,16.90
2022-09-20T16:22:16.023Z,16.70
2022-09-20T16:24:42.695Z,16.20
2022-09-20T16:27:10.061Z,16.30
2022-09-20T16:29:37.491Z,16.40
2022-09-20T16:32:05.432Z,16.30
2022-09-20T16:34:36.932Z,15.60
2022-09-20T16:37:11.945Z,15.20
2022-09-20T16:39:38.676Z,13.70
2022-09-20T16:42:08.628Z,13.20
2022-09-20T16:44:36.976Z,12.80
2022-09-20T16:47:09.820Z,12.30
2022-09-20T16:49:37.083Z,12.10
2022-09-20T16:52:11.042Z,12.00
2022-09-20T16:54:38.197Z,11.80
2022-09-20T16:57:05.150Z,11.60
2022-09-20T16:59:32.374Z,11.50
2022-09-20T17:01:59.131Z,11.20
2022-09-20T17:04:25.974Z,11.00
2022-09-20T17:06:52.793Z,11.10
2022-09-20T17:09:19.591Z,10.90
2022-09-20T17:11:50.152Z,10.70
2022-09-20T17:14:19.344Z,10.60
2022-09-20T17:16:50.449Z,10.40
2022-09-20T17:19:19.565Z,10.30
2022-09-20T17:21:51.494Z,10.30
2022-09-20T17:24:22.662Z,10.10
2022-09-20T17:26:50.737Z,9.80
2022-09-20T17:29:19.007Z,9.80
2022-09-20T17:31:54.036Z,9.70
2022-09-20T17:34:22.358Z,9.80
2022-09-20T17:36:50.233Z,9.80
2022-09-20T17:39:17.015Z,9.70
2022-09-20T17:41:48.375Z,9.80
2022-09-20T17:44:15.772Z,9.80
2022-09-20T17:46:49.385Z,9.80
2022-09-20T17:49:19.327Z,9.80
2022-09-20T17:51:56.398Z,9.70
2022-09-20T17:54:24.363Z,9.70
2022-09-20T17:56:55.572Z,9.70
2022-09-20T17:59:22.544Z,9.70
2022-09-20T18:01:51.315Z,9.50
2022-09-20T18:04:20.733Z,9.20
2022-09-20T18:06:52.902Z,9.10
2022-09-20T18:09:22.426Z,9.00
2022-09-20T18:11:52.703Z,9.00
2022-09-20T18:14:23.103Z,8.90
2022-09-20T18:16:58.015Z,9.00
2022-09-20T18:19:32.183Z,8.90
2022-09-20T18:21:59.302Z,8.80
2022-09-20T18:24:26.532Z,8.80
2022-09-20T18:26:53.512Z,8.80
2022-09-20T18:29:20.300Z,8.80
2022-09-20T18:31:49.706Z,8.60
2022-09-20T18:34:18.649Z,8.40
2022-09-20T18:36:51.490Z,8.10
2022-09-20T18:39:23.221Z,8.10
2022-09-20T18:41:50.619Z,8.00
2022-09-20T18:44:18.530Z,8.00
2022-09-20T18:46:46.449Z,7.90
2022-09-20T18:49:15.056Z,7.90
2022-09-20T18:51:43.208Z,7.90
2022-09-20T18:54:11.105Z,7.90
2022-09-20T18:56:40.597Z,7.80
2022-09-20T18:59:18.622Z,7.90
2022-09-20T19:01:58.459Z,8.00
2022-09-20T19:04:49.468Z,7.70
2022-09-20T19:07:19.222Z,7.60
2022-09-20T19:09:49.514Z,7.40
2022-09-20T19:12:53.484Z,7.40
2022-09-20T19:15:42.156Z,7.30
2022-09-20T19:18:24.723Z,7.20
2022-09-20T19:21:05.964Z,7.20
2022-09-20T19:23:54.563Z,7.20
2022-09-20T19:26:29.656Z,7.20
2022-09-20T19:28:59.980Z,7.20
2022-09-20T19:31:32.075Z,7.00
2022-09-20T19:34:01.394Z,7.00
2022-09-20T19:36:43.373Z,7.00
2022-09-20T19:39:26.742Z,6.90
2022-09-20T19:42:14.735Z,6.90
2022-09-20T19:45:16.062Z,6.80
2022-09-20T19:48:04.442Z,6.80
2022-09-20T19:50:46.428Z,6.70
2022-09-20T19:53:15.470Z,6.60
2022-09-20T19:55:47.382Z,6.60
2022-09-20T19:58:15.351Z,6.50
2022-09-20T20:00:45.896Z,6.60
2022-09-20T20:03:13.977Z,6.60
2022-09-20T20:05:52.495Z,6.50
2022-09-20T20:08:23.877Z,6.50
2022-09-20T20:11:00.643Z,6.40
2022-09-20T20:14:03.357Z,6.40
2022-09-20T20:16:40.638Z,6.40
2022-09-20T20:19:40.605Z,6.40
2022-09-20T20:22:18.564Z,6.50
2022-09-20T20:24:53.333Z,6.40
2022-09-20T20:27:21.152Z,6.50
2022-09-20T20:29:47.935Z,6.40
2022-09-20T20:32:15.144Z,6.40
2022-09-20T20:34:42.246Z,6.40
2022-09-20T20:37:09.092Z,6.30
2022-09-20T20:39:35.768Z,6.30
2022-09-20T20:42:03.283Z,6.30
2022-09-20T20:44:31.005Z,6.30
2022-09-20T20:46:57.725Z,6.30
2022-09-20T20:49:24.834Z,6.40
2022-09-20T20:51:51.544Z,6.50
2022-09-20T20:54:18.229Z,6.60
2022-09-20T20:56:44.905Z,6.60
2022-09-20T20:59:11.586Z,6.60
2022-09-20T21:01:42.799Z,6.50
2022-09-20T21:04:11.246Z,6.50
2022-09-20T21:06:42.581Z,6.50
2022-09-20T21:09:10.903Z,6.40
2022-09-20T21:11:40.249Z,6.40
2022-09-20T21:14:07.336Z,6.30
2022-09-20T21:16:36.185Z,6.40
2022-09-20T21:19:04.262Z,6.40
2022-09-20T21:21:33.523Z,6.40
2022-09-20T21:24:05.757Z,6.30
2022-09-20T21:26:34.094Z,6.30
2022-09-20T21:29:03.430Z,6.30
2022-09-20T21:31:35.888Z,6.30
2022-09-20T21:34:05.347Z,6.30
2022-09-20T21:36:32.645Z,6.20
2022-09-20T21:38:59.679Z,6.20
2022-09-20T21:41:31.874Z,6.10
2022-09-20T21:44:00.363Z,6.20
2022-09-20T21:46:35.719Z,6.20
2022-09-20T21:49:05.104Z,6.00
2022-09-20T21:51:32.751Z,6.00
2022-09-20T21:54:01.283Z,6.00
2022-09-20T21:56:31.220Z,6.00
2022-09-20T21:58:58.404Z,5.90
2022-09-20T22:01:27.324Z,5.80
2022-09-20T22:04:00.167Z,5.80
2022-09-20T22:06:29.958Z,5.80
2022-09-20T22:09:03.404Z,5.90
2022-09-20T22:11:32.766Z,6.00
2022-09-20T22:13:59.640Z,6.00
2022-09-20T22:16:28.589Z,5.90
2022-09-20T22:18:56.212Z,5.80
2022-09-20T22:21:50.927Z,5.80
2022-09-20T22:24:17.901Z,5.80
2022-09-20T22:26:50.506Z,5.80
2022-09-20T22:29:17.522Z,5.80
2022-09-20T22:31:46.606Z,5.70
2022-09-20T22:34:18.880Z,5.60
2022-09-20T22:36:45.987Z,5.60
2022-09-20T22:39:13.386Z,5.60
2022-09-20T22:41:41.374Z,5.60
2022-09-20T22:44:08.737Z,5.70
2022-09-20T22:46:36.187Z,5.60
2022-09-20T22:49:08.231Z,5.60
2022-09-20T22:51:35.185Z,5.40
2022-09-20T22:54:07.975Z,5.40
2022-09-20T22:56:35.194Z,5.40
2022-09-20T22:59:07.603Z,5.30
2022-09-20T23:01:41.384Z,5.20
2022-09-20T23:04:10.743Z,5.20
2022-09-20T23:06:39.754Z,5.20
2022-09-20T23:09:09.788Z,5.10
2022-09-20T23:11:37.570Z,5.10
2022-09-20T23:14:05.959Z,5.10
2022-09-20T23:16:35.113Z,5.10
2022-09-20T23:19:02.720Z,5.10
2022-09-20T23:21:29.567Z,5.10
2022-09-20T23:24:01.470Z,5.00
2022-09-20T23:26:31.147Z,5.00
2022-09-20T23:29:00.330Z,4.90
2022-09-20T23:31:28.264Z,4.80
2022-09-20T23:33:57.174Z,4.80
2022-09-20T23:36:25.610Z,4.70
2022-09-20T23:38:52.527Z,4.70
2022-09-20T23:41:21.578Z,4.80
2022-09-20T23:43:48.514Z,4.80
2022-09-20T23:46:17.523Z,4.80
2022-09-20T23:48:44.750Z,4.80
2022-09-20T23:51:15.260Z,4.70
2022-09-20T23:53:42.753Z,4.60
2022-09-20T23:56:11.038Z,4.60
2022-09-20T23:58:39.020Z,4.50
